Time;durP1;ratioP1;P1;durP2;ratioP2;P2;SDS_P1;SDS_P2;PMS_P1;PMS_P2;Temp;Humidity;BMP_temperature;BMP_pressure;BME280_temperature;BME280_humidity;BME280_pressure;Samples;Min_cycle;Max_cycle;Signal;HPM_P1;HPM_P2
2021/12/11 00:02:34;;;;;;;25.57;15.27;;;;;;;-0.96;86.62;96491.88;6353254;27;20213;-68
2021/12/11 00:05:37;;;;;;;26.33;17.20;;;;;;;-0.97;86.56;96497.13;6372045;27;20388;-68
2021/12/11 00:08:41;;;;;;;29.00;16.97;;;;;;;-1.02;86.36;96502.59;6368810;27;20295;-68
2021/12/11 00:11:48;;;;;;;25.03;15.40;;;;;;;-1.00;86.38;96502.50;6352978;27;20209;-68
2021/12/11 00:14:54;;;;;;;27.30;16.47;;;;;;;-1.02;86.28;96502.59;6371521;27;20224;-68
2021/12/11 00:18:00;;;;;;;27.23;15.60;;;;;;;-1.04;86.28;96509.59;6353402;27;20195;-68
2021/12/11 00:21:08;;;;;;;23.37;15.33;;;;;;;-1.04;86.65;96511.34;6371195;27;20192;-67
2021/12/11 00:24:17;;;;;;;23.63;16.07;;;;;;;-1.04;86.39;96507.00;6371066;27;20279;-68
2021/12/11 00:27:25;;;;;;;25.47;14.93;;;;;;;-1.07;86.23;96512.34;6353364;27;20192;-68
2021/12/11 00:30:31;;;;;;;23.30;13.23;;;;;;;-1.10;86.16;96517.69;6371452;27;20200;-68
2021/12/11 00:33:34;;;;;;;21.97;14.03;;;;;;;-1.09;86.42;96521.91;6371567;27;20173;-68
2021/12/11 00:36:36;;;;;;;21.77;12.80;;;;;;;-1.08;86.25;96526.19;6371324;27;20220;-68
2021/12/11 00:39:51;;;;;;;19.80;13.23;;;;;;;-1.07;86.29;96548.56;6376085;27;20195;-68
2021/12/11 00:43:03;;;;;;;22.97;14.20;;;;;;;-1.09;86.51;96545.22;6345289;28;20281;-68
2021/12/11 00:46:09;;;;;;;20.23;12.97;;;;;;;-1.10;86.42;96561.69;6370383;27;20205;-68
2021/12/11 00:49:16;;;;;;;22.60;13.30;;;;;;;-1.09;86.08;96563.34;6371066;27;20192;-68
2021/12/11 00:52:29;;;;;;;23.03;14.17;;;;;;;-1.05;86.32;96574.38;6370786;27;20242;-68
2021/12/11 00:55:35;;;;;;;21.07;13.37;;;;;;;-1.06;85.98;96573.53;6370041;27;20196;-68
2021/12/11 00:58:40;;;;;;;19.67;12.53;;;;;;;-1.05;86.25;96595.94;6370886;27;20931;-68
2021/12/11 01:01:54;;;;;;;21.10;13.80;;;;;;;-1.03;86.01;96598.44;6370117;27;20291;-67
2021/12/11 01:04:57;;;;;;;19.30;12.27;;;;;;;-1.05;86.22;96605.44;6370747;27;20233;-67
2021/12/11 01:07:59;;;;;;;21.07;14.27;;;;;;;-1.03;86.23;96611.41;6372593;27;20196;-68
2021/12/11 01:11:10;;;;;;;20.97;13.97;;;;;;;-1.02;86.15;96623.44;6370212;27;20209;-67
2021/12/11 01:14:31;;;;;;;26.27;15.43;;;;;;;-1.04;85.91;96633.84;6370036;27;20228;-67
2021/12/11 01:17:48;;;;;;;22.57;14.27;;;;;;;-1.05;86.19;96639.09;6369817;27;20170;-67
2021/12/11 01:21:41;;;;;;;23.43;14.93;;;;;;;-1.09;85.82;96646.19;6351758;27;20180;-70
2021/12/11 01:24:45;;;;;;;21.07;13.77;;;;;;;-1.07;86.09;96646.94;6351687;27;20173;-67
2021/12/11 01:27:53;;;;;;;22.97;14.23;;;;;;;-1.05;86.24;96652.06;6351733;27;20204;-67
2021/12/11 01:30:58;;;;;;;26.40;15.53;;;;;;;-1.02;86.02;96659.66;6370157;27;20651;-67
2021/12/11 01:34:00;;;;;;;21.30;13.53;;;;;;;-1.02;85.92;96660.50;6369639;27;20191;-67
2021/12/11 01:37:04;;;;;;;20.27;12.20;;;;;;;-1.02;85.85;96657.09;6370827;27;20557;-67
2021/12/11 01:40:09;;;;;;;17.37;12.43;;;;;;;-1.02;85.95;96655.34;6379687;27;20238;-67
2021/12/11 01:43:12;;;;;;;24.37;15.70;;;;;;;-1.02;85.90;96657.91;6369348;27;20209;-67
2021/12/11 01:46:18;;;;;;;24.33;15.47;;;;;;;-1.03;85.84;96658.00;6350892;27;20216;-67
2021/12/11 01:49:22;;;;;;;26.17;16.67;;;;;;;-1.07;85.88;96672.00;6350935;27;20193;-67
2021/12/11 01:52:37;;;;;;;26.63;15.70;;;;;;;-1.11;85.87;96668.75;6368935;27;20193;-67
2021/12/11 01:55:48;;;;;;;25.60;14.63;;;;;;;-1.13;86.03;96673.16;6367722;27;20217;-67
2021/12/11 01:58:57;;;;;;;24.07;13.60;;;;;;;-1.15;85.98;96670.63;6325891;28;20530;-67
2021/12/11 02:02:08;;;;;;;22.43;14.33;;;;;;;-1.14;85.93;96674.91;6343257;28;20272;-67
2021/12/11 02:05:13;;;;;;;24.13;13.47;;;;;;;-1.12;85.79;96672.25;6367597;27;20189;-67
2021/12/11 02:08:19;;;;;;;19.33;11.73;;;;;;;-1.09;86.11;96671.22;6380997;27;20207;-67
2021/12/11 02:11:27;;;;;;;21.90;13.00;;;;;;;-1.07;85.89;96667.66;6377201;27;20357;-67
2021/12/11 02:14:36;;;;;;;18.90;12.40;;;;;;;-1.09;86.02;96676.41;6368539;27;20239;-67
2021/12/11 02:17:51;;;;;;;20.17;12.50;;;;;;;-1.08;85.72;96684.09;6350424;27;20257;-67
2021/12/11 02:20:55;;;;;;;23.37;13.70;;;;;;;-1.07;85.93;96682.34;6349810;27;20195;-67
2021/12/11 02:24:06;;;;;;;22.97;14.03;;;;;;;-1.08;85.67;96691.88;6350260;27;20639;-68
2021/12/11 02:27:17;;;;;;;22.80;14.27;;;;;;;-1.10;85.73;96685.97;6350620;27;20196;-68
2021/12/11 02:30:49;;;;;;;23.87;13.27;;;;;;;-1.10;85.78;96695.47;6368421;27;20264;-67
2021/12/11 02:33:56;;;;;;;18.30;11.80;;;;;;;-1.13;85.80;96686.94;6321401;28;20852;-67
2021/12/11 02:37:36;;;;;;;19.67;12.17;;;;;;;-1.10;85.91;96690.28;6370277;27;20238;-67
2021/12/11 02:40:55;;;;;;;20.50;12.33;;;;;;;-1.10;85.72;96690.28;6350677;28;20694;-67
2021/12/11 02:44:05;;;;;;;17.37;11.23;;;;;;;-1.09;85.73;96689.34;6349879;28;20228;-67
2021/12/11 02:47:17;;;;;;;19.47;12.07;;;;;;;-1.08;85.66;96694.47;6350659;28;20166;-67
2021/12/11 02:50:23;;;;;;;19.30;12.30;;;;;;;-1.08;85.82;96699.63;6368394;28;20675;-67
2021/12/11 02:53:31;;;;;;;16.70;10.80;;;;;;;-1.09;85.89;96703.13;6368250;28;20721;-67
2021/12/11 02:56:38;;;;;;;20.17;12.47;;;;;;;-1.08;85.72;96706.56;6367782;28;20668;-67
2021/12/11 02:59:44;;;;;;;19.27;12.43;;;;;;;-1.06;85.39;96712.50;6368220;28;20660;-67
2021/12/11 03:02:50;;;;;;;17.23;10.80;;;;;;;-1.07;85.60;96716.00;6368929;28;20200;-68
2021/12/11 03:06:22;;;;;;;18.07;11.17;;;;;;;-1.08;85.40;96716.91;6367957;28;20222;-67
2021/12/11 03:09:18;;;;;;;19.37;12.00;;;;;;;-1.09;85.59;96721.25;6377890;27;20652;-67
2021/12/11 03:12:22;;;;;;;20.87;12.47;;;;;;;-1.11;85.77;96717.94;6368070;28;20184;-67
2021/12/11 03:15:25;;;;;;;18.77;11.93;;;;;;;-1.12;85.61;96724.84;6368098;28;20727;-67
2021/12/11 03:18:28;;;;;;;20.03;12.80;;;;;;;-1.12;85.77;96734.38;6367817;28;20699;-67
2021/12/11 03:21:30;;;;;;;20.23;13.40;;;;;;;-1.10;85.77;96736.91;6367596;28;20565;-67
2021/12/11 03:24:35;;;;;;;21.50;12.60;;;;;;;-1.11;85.44;96743.81;6368132;28;20192;-67
2021/12/11 03:27:38;;;;;;;19.33;11.63;;;;;;;-1.12;85.38;96744.72;6367900;28;20659;-67
2021/12/11 03:30:50;;;;;;;20.47;12.70;;;;;;;-1.12;85.76;96740.38;6370437;27;20192;-67
2021/12/11 03:33:58;;;;;;;19.00;12.93;;;;;;;-1.13;85.28;96737.88;6372409;27;20212;-67
2021/12/11 03:37:02;;;;;;;22.33;12.87;;;;;;;-1.13;85.52;96749.06;6373828;27;20197;-67
2021/12/11 03:40:07;;;;;;;21.70;13.07;;;;;;;-1.13;85.67;96725.78;6389401;27;20558;-67
2021/12/11 03:43:13;;;;;;;20.93;13.57;;;;;;;-1.12;85.42;96722.28;6372113;27;20257;-67
2021/12/11 03:46:16;;;;;;;23.50;13.37;;;;;;;-1.13;85.38;96718.00;6372746;27;20193;-67
2021/12/11 03:49:22;;;;;;;21.97;13.17;;;;;;;-1.11;85.32;96723.09;6372530;27;20776;-67
2021/12/11 03:52:25;;;;;;;20.60;12.87;;;;;;;-1.10;85.53;96727.38;6372486;27;20616;-66
2021/12/11 03:55:32;;;;;;;24.17;11.83;;;;;;;-1.11;85.44;96730.88;6354081;27;20189;-67
2021/12/11 03:58:35;;;;;;;24.37;12.90;;;;;;;-1.12;85.29;96752.50;6353436;27;20189;-67
2021/12/11 04:01:49;;;;;;;21.30;12.57;;;;;;;-1.13;85.33;96758.59;6353143;27;20320;-68
2021/12/11 04:04:55;;;;;;;22.37;12.63;;;;;;;-1.14;85.25;96764.66;6372064;27;20195;-68
2021/12/11 04:07:58;;;;;;;23.40;13.17;;;;;;;-1.14;85.57;96765.50;6363435;27;20191;-68
2021/12/11 04:11:01;;;;;;;23.07;12.37;;;;;;;-1.14;85.31;96777.63;6370136;27;20711;-68
2021/12/11 04:14:11;;;;;;;27.93;14.73;;;;;;;-1.15;85.40;96787.13;6371766;27;20350;-68
2021/12/11 04:17:18;;;;;;;21.63;13.13;;;;;;;-1.14;85.48;96782.78;6353489;27;20173;-68
2021/12/11 04:20:24;;;;;;;24.53;14.03;;;;;;;-1.13;85.30;96787.91;6371320;27;20637;-68
2021/12/11 04:23:26;;;;;;;25.37;13.73;;;;;;;-1.13;85.38;96787.91;6346811;28;20194;-68
2021/12/11 04:26:28;;;;;;;25.77;14.33;;;;;;;-1.12;85.46;96791.31;6340879;28;20205;-68
2021/12/11 04:29:32;;;;;;;25.43;14.33;;;;;;;-1.13;85.18;96794.81;6337920;28;20193;-68
2021/12/11 04:32:35;;;;;;;28.40;14.83;;;;;;;-1.13;85.43;96797.41;6361611;27;20660;-68
2021/12/11 04:35:38;;;;;;;28.93;15.37;;;;;;;-1.15;85.40;96797.47;6352828;27;20193;-68
2021/12/11 04:38:42;;;;;;;26.93;14.80;;;;;;;-1.16;85.25;96803.56;6377970;27;20188;-68
2021/12/11 04:41:58;;;;;;;27.83;15.13;;;;;;;-1.16;85.35;96798.38;6351569;27;20196;-68
2021/12/11 04:45:01;;;;;;;26.13;13.83;;;;;;;-1.14;85.52;96809.50;6354993;27;20192;-68
2021/12/11 04:48:31;;;;;;;29.43;15.60;;;;;;;-1.12;85.72;96809.44;6370611;27;20675;-68
2021/12/11 04:54:56;;;;;;;22.40;13.33;;;;;;;-1.09;85.50;96826.56;6371045;27;20262;-68
2021/12/11 05:07:45;;;;;;;23.73;12.87;;;;;;;-1.07;85.52;96835.09;6376340;27;20188;-69
2021/12/11 05:11:02;;;;;;;22.40;12.83;;;;;;;-1.05;85.41;96841.88;6358951;27;20213;-69
2021/12/11 05:14:06;;;;;;;23.50;12.97;;;;;;;-1.03;85.52;96847.84;6370069;27;20220;-68
2021/12/11 05:17:09;;;;;;;27.63;14.13;;;;;;;-1.03;85.32;96849.59;6370269;27;20193;-68
2021/12/11 05:20:14;;;;;;;27.87;14.60;;;;;;;-1.02;85.44;96851.28;6351613;27;20562;-68
2021/12/11 05:23:16;;;;;;;24.23;13.50;;;;;;;-1.02;85.62;96849.53;6370064;27;20201;-68
2021/12/11 05:26:20;;;;;;;24.30;13.80;;;;;;;-1.00;85.38;96865.00;6369597;27;20220;-68
2021/12/11 05:29:22;;;;;;;23.23;14.13;;;;;;;-1.00;85.68;96862.41;6369806;27;20257;-68
2021/12/11 05:32:26;;;;;;;27.93;15.93;;;;;;;-1.02;85.37;96867.66;6351710;27;20547;-68
2021/12/11 05:35:31;;;;;;;23.70;14.23;;;;;;;-1.03;85.53;96872.88;6370107;27;20204;-68
2021/12/11 05:38:39;;;;;;;24.30;13.03;;;;;;;-1.03;85.28;96873.72;6365975;27;20192;-68
2021/12/11 05:41:43;;;;;;;25.40;14.53;;;;;;;-1.03;85.56;96889.25;6376440;27;20533;-68
2021/12/11 05:44:46;;;;;;;24.63;14.03;;;;;;;-1.02;85.22;96890.09;6369693;27;20208;-68
2021/12/11 05:47:48;;;;;;;26.23;14.30;;;;;;;-1.01;85.69;96890.03;6369737;27;20233;-68
2021/12/11 05:50:56;;;;;;;26.13;13.80;;;;;;;-1.00;85.69;96894.31;6368933;27;20245;-68
2021/12/11 05:54:00;;;;;;;21.13;12.90;;;;;;;-0.99;85.54;96895.97;6349919;27;20318;-69
2021/12/11 05:57:07;;;;;;;26.37;13.23;;;;;;;-0.98;85.63;96889.03;6369250;27;20664;-68
2021/12/11 06:00:11;;;;;;;28.33;15.80;;;;;;;-0.97;85.70;96895.88;6369084;27;20172;-69
2021/12/11 06:03:31;;;;;;;26.63;15.33;;;;;;;-0.97;85.67;96896.72;6369084;27;20193;-68
2021/12/11 06:06:34;;;;;;;25.93;14.17;;;;;;;-0.96;85.33;96892.41;6368698;27;20261;-69
2021/12/11 06:09:38;;;;;;;20.60;12.90;;;;;;;-0.96;85.62;96897.56;6371691;27;20180;-68
2021/12/11 06:12:40;;;;;;;23.23;14.10;;;;;;;-0.96;85.53;96903.59;6368846;27;20207;-69
2021/12/11 06:15:43;;;;;;;21.77;13.03;;;;;;;-0.94;85.31;96912.13;6350570;27;20220;-68
2021/12/11 06:18:46;;;;;;;27.77;15.10;;;;;;;-0.94;85.42;96913.88;6350278;27;20184;-68
2021/12/11 06:21:50;;;;;;;29.40;16.40;;;;;;;-0.94;85.39;96908.69;6368874;27;20187;-68
2021/12/11 06:24:55;;;;;;;25.70;13.93;;;;;;;-0.93;85.40;96911.22;6368904;27;20230;-68
2021/12/11 06:27:57;;;;;;;25.23;13.83;;;;;;;-0.95;85.41;96915.63;6368515;27;20194;-69
2021/12/11 06:31:02;;;;;;;26.47;14.80;;;;;;;-0.94;85.64;96911.28;6368312;27;20226;-69
2021/12/11 06:34:05;;;;;;;27.80;15.80;;;;;;;-0.95;85.58;96907.88;6350408;28;20687;-68
2021/12/11 06:37:09;;;;;;;29.07;16.37;;;;;;;-0.96;85.46;96906.19;6371069;27;20309;-68
2021/12/11 06:40:12;;;;;;;20.07;13.00;;;;;;;-0.97;85.61;96917.44;6376204;27;20216;-69
2021/12/11 06:43:14;;;;;;;23.23;14.67;;;;;;;-0.95;85.50;96926.00;6368343;28;20205;-68
2021/12/11 06:46:17;;;;;;;25.70;14.47;;;;;;;-0.95;85.52;96922.56;6368434;28;20278;-68
2021/12/11 06:49:20;;;;;;;27.77;15.40;;;;;;;-0.97;85.59;96926.97;6368642;28;20656;-68
2021/12/11 06:52:25;;;;;;;32.07;16.50;;;;;;;-0.97;85.45;96917.44;6368162;28;20214;-68
2021/12/11 06:55:27;;;;;;;26.70;13.90;;;;;;;-0.97;85.51;96930.41;6350376;28;20269;-68
2021/12/11 06:58:31;;;;;;;32.13;17.13;;;;;;;-0.98;85.64;96943.41;6368284;28;20207;-68
2021/12/11 07:01:34;;;;;;;29.80;16.77;;;;;;;-0.97;85.44;96950.28;6367637;28;20193;-68
2021/12/11 07:04:38;;;;;;;31.47;17.57;;;;;;;-0.97;85.37;96956.28;6350437;27;20220;-68
2021/12/11 07:07:42;;;;;;;36.80;20.07;;;;;;;-0.99;85.58;96958.09;6380717;27;20191;-68
2021/12/11 07:10:46;;;;;;;36.33;19.20;;;;;;;-0.98;85.65;96974.47;6367421;27;20703;-68
2021/12/11 07:13:49;;;;;;;37.70;21.20;;;;;;;-0.95;85.57;96980.38;6372859;27;20253;-69
2021/12/11 07:16:51;;;;;;;35.63;19.20;;;;;;;-0.91;85.71;96986.25;6373263;27;20208;-68
2021/12/11 07:19:53;;;;;;;42.80;22.33;;;;;;;-0.86;85.44;96995.47;6372780;27;20200;-69
2021/12/11 07:22:56;;;;;;;32.67;19.33;;;;;;;-0.78;85.70;96995.13;6372798;27;20260;-68
2021/12/11 07:26:15;;;;;;;42.17;21.83;;;;;;;-0.72;85.46;96996.59;6372432;27;20192;-68
2021/12/11 07:29:19;;;;;;;40.50;23.87;;;;;;;-0.64;85.51;97000.50;6373107;27;20668;-68
2021/12/11 07:32:21;;;;;;;36.80;20.87;;;;;;;-0.59;85.29;97008.06;6372202;27;20271;-68
2021/12/11 07:35:24;;;;;;;43.27;22.87;;;;;;;-0.54;85.27;97009.53;6372919;27;20196;-68
2021/12/11 07:38:26;;;;;;;40.83;22.00;;;;;;;-0.50;85.19;97015.44;6386741;27;20742;-68
2021/12/11 07:41:28;;;;;;;36.90;20.87;;;;;;;-0.46;85.04;97027.31;6381650;27;20199;-68
2021/12/11 07:44:30;;;;;;;40.73;21.53;;;;;;;-0.43;85.14;97033.19;6372444;27;20673;-68
2021/12/11 07:47:32;;;;;;;42.53;22.70;;;;;;;-0.44;84.64;97046.22;6372009;27;20195;-68
2021/12/11 07:50:35;;;;;;;39.67;20.30;;;;;;;-0.45;84.55;97044.53;6372185;27;20191;-71
2021/12/11 07:53:37;;;;;;;37.67;21.67;;;;;;;-0.46;84.89;97042.84;6371872;27;20674;-68
2021/12/11 07:56:40;;;;;;;34.37;19.30;;;;;;;-0.43;84.63;97050.50;6371684;27;20638;-68
2021/12/11 07:59:43;;;;;;;41.90;22.53;;;;;;;-0.43;84.65;97059.13;6372194;27;20193;-68
2021/12/11 08:02:45;;;;;;;42.93;22.43;;;;;;;-0.43;84.48;97064.31;6371527;27;20242;-68
2021/12/11 08:05:50;;;;;;;39.80;21.80;;;;;;;-0.42;84.79;97068.56;6372013;27;20192;-69
2021/12/11 08:08:52;;;;;;;45.00;23.13;;;;;;;-0.40;84.94;97076.28;6379099;27;20648;-71
2021/12/11 08:11:55;;;;;;;40.47;21.93;;;;;;;-0.38;84.83;97090.00;6371354;27;20213;-69
2021/12/11 08:14:57;;;;;;;42.27;22.10;;;;;;;-0.33;85.13;97094.97;6371893;27;20707;-69
2021/12/11 08:18:02;;;;;;;46.37;23.57;;;;;;;-0.33;84.64;97106.19;6370449;27;20196;-69
2021/12/11 08:21:05;;;;;;;45.23;22.23;;;;;;;-0.30;84.30;97100.84;6346072;28;20193;-69
2021/12/11 08:24:08;;;;;;;53.10;24.40;;;;;;;-0.26;84.65;97109.31;6368404;27;20208;-69
2021/12/11 08:27:15;;;;;;;45.10;22.10;;;;;;;-0.20;84.61;97119.44;6371450;27;20220;-69
2021/12/11 08:30:18;;;;;;;44.93;22.23;;;;;;;-0.17;84.89;97120.13;6371507;27;20208;-69
2021/12/11 08:33:22;;;;;;;43.73;23.27;;;;;;;-0.16;84.58;97120.94;6352269;27;20197;-69
2021/12/11 08:36:24;;;;;;;41.90;23.03;;;;;;;-0.12;84.59;97125.09;6352439;27;20207;-69
2021/12/11 08:39:28;;;;;;;43.57;21.90;;;;;;;-0.08;84.66;97132.66;6386277;27;20596;-69
2021/12/11 08:42:30;;;;;;;43.63;21.97;;;;;;;-0.03;84.57;97132.44;6370614;27;20273;-69
2021/12/11 08:46:00;;;;;;;46.03;23.80;;;;;;;-0.01;84.46;97138.41;6371098;27;20268;-71
2021/12/11 08:49:08;;;;;;;47.57;23.03;;;;;;;0.06;84.40;97151.91;6352355;27;20461;-69
2021/12/11 08:52:24;;;;;;;42.60;23.00;;;;;;;0.13;84.55;97159.34;6370213;27;20181;-69
2021/12/11 08:55:31;;;;;;;41.07;23.87;;;;;;;0.15;83.82;97167.03;6354125;27;20174;-69
2021/12/11 08:58:35;;;;;;;48.80;24.77;;;;;;;0.16;83.40;97174.75;6371013;27;20199;-70
2021/12/11 09:02:00;;;;;;;43.70;22.87;;;;;;;0.25;84.13;97178.66;6370041;27;20218;-69
2021/12/11 09:05:23;;;;;;;46.40;23.27;;;;;;;0.37;83.49;97183.28;6370335;27;20208;-69
2021/12/11 09:09:04;;;;;;;46.40;23.60;;;;;;;0.49;83.34;97193.09;6383631;27;20272;-69
2021/12/11 09:12:41;;;;;;;48.03;23.37;;;;;;;0.57;83.16;97198.75;6373734;27;20600;-70
2021/12/11 09:15:50;;;;;;;43.67;22.67;;;;;;;0.66;82.87;97202.66;6334351;27;20281;-69
2021/12/11 09:18:55;;;;;;;42.27;22.80;;;;;;;0.65;82.31;97200.97;6370186;27;20199;-69
2021/12/11 09:22:12;;;;;;;42.30;23.03;;;;;;;0.67;82.56;97212.13;6369731;27;20192;-69
2021/12/11 09:25:23;;;;;;;40.50;23.10;;;;;;;0.66;82.55;97215.63;6369769;27;20215;-69
2021/12/11 09:28:34;;;;;;;51.73;26.70;;;;;;;0.71;82.44;97218.84;6369363;27;20196;-69
2021/12/11 09:31:45;;;;;;;43.03;23.03;;;;;;;0.75;82.42;97222.97;6369465;27;20546;-69
2021/12/11 09:34:53;;;;;;;47.07;24.80;;;;;;;0.82;82.69;97228.69;6369687;27;20648;-69
2021/12/11 09:38:00;;;;;;;48.67;26.23;;;;;;;0.89;82.27;97228.34;6371481;27;20269;-69
2021/12/11 09:41:19;;;;;;;49.50;27.03;;;;;;;0.99;82.29;97220.94;6368874;27;20648;-69
2021/12/11 09:44:29;;;;;;;47.33;26.20;;;;;;;1.10;81.15;97227.25;6350491;27;20208;-69
2021/12/11 09:47:38;;;;;;;51.27;26.53;;;;;;;1.26;80.84;97222.16;6369294;27;20623;-69
2021/12/11 09:50:50;;;;;;;48.93;25.70;;;;;;;1.42;80.94;97222.19;6351225;27;20185;-69
2021/12/11 09:53:56;;;;;;;49.60;26.60;;;;;;;1.54;80.42;97231.97;6368885;27;20192;-69
2021/12/11 09:57:05;;;;;;;47.50;26.80;;;;;;;1.61;79.82;97232.50;6369208;27;20189;-69
2021/12/11 10:00:14;;;;;;;50.27;26.90;;;;;;;1.71;79.59;97238.91;6369051;27;20220;-69
2021/12/11 10:03:22;;;;;;;55.60;28.73;;;;;;;1.75;79.08;97233.47;6368510;27;20193;-69
2021/12/11 10:06:44;;;;;;;53.57;27.27;;;;;;;1.82;79.27;97236.56;6368332;27;20562;-69
2021/12/11 10:09:49;;;;;;;48.53;26.10;;;;;;;1.79;78.74;97248.00;6379717;27;20204;-70
2021/12/11 10:12:56;;;;;;;46.63;26.57;;;;;;;1.93;79.13;97249.88;6368665;27;20574;-69
2021/12/11 10:15:59;;;;;;;46.97;25.90;;;;;;;2.04;78.08;97265.75;6368776;27;20552;-69
2021/12/11 10:19:03;;;;;;;43.53;24.47;;;;;;;2.05;78.09;97264.84;6368501;27;20556;-69
2021/12/11 10:22:14;;;;;;;42.47;23.27;;;;;;;2.01;78.15;97267.66;6368669;27;20189;-69
2021/12/11 10:25:21;;;;;;;43.33;23.57;;;;;;;2.00;78.33;97272.03;6350577;27;20731;-70
2021/12/11 10:28:27;;;;;;;41.13;23.07;;;;;;;2.08;78.42;97274.25;6368742;27;20182;-69
2021/12/11 10:31:34;;;;;;;45.40;24.03;;;;;;;2.14;77.95;97263.50;6368339;27;20189;-70
2021/12/11 10:34:38;;;;;;;44.03;22.73;;;;;;;2.10;78.23;97274.97;6350199;27;20588;-70
2021/12/11 10:37:40;;;;;;;44.47;23.90;;;;;;;2.01;78.04;97280.69;6375809;27;20819;-70
2021/12/11 10:40:47;;;;;;;42.70;23.47;;;;;;;1.92;77.91;97283.75;6380272;27;20677;-70
2021/12/11 10:43:54;;;;;;;38.23;21.83;;;;;;;1.88;78.32;97277.91;6368542;28;20201;-71
2021/12/11 10:47:11;;;;;;;40.87;22.73;;;;;;;1.92;78.23;97284.59;6368489;28;20190;-71
2021/12/11 10:50:23;;;;;;;43.13;23.17;;;;;;;1.97;78.19;97282.63;6368533;28;20189;-70
2021/12/11 10:53:27;;;;;;;38.87;22.40;;;;;;;1.99;78.00;97283.38;6368087;28;20311;-70
2021/12/11 10:56:29;;;;;;;40.20;21.93;;;;;;;2.12;77.74;97292.22;6367927;28;20218;-70
2021/12/11 10:59:34;;;;;;;39.87;22.47;;;;;;;2.28;77.02;97281.84;6367077;27;20226;-70
2021/12/11 11:02:36;;;;;;;33.97;20.47;;;;;;;2.45;77.10;97283.53;6313418;22;21966;-70
2021/12/11 11:05:39;;;;;;;38.00;22.10;;;;;;;2.42;76.13;97281.06;6294997;23;20235;-71
2021/12/11 11:08:42;;;;;;;38.97;22.60;;;;;;;2.43;76.54;97287.97;6321469;23;20774;-70
2021/12/11 11:11:49;;;;;;;42.47;24.17;;;;;;;2.37;76.25;97285.72;6293421;27;72504;-71
2021/12/11 11:14:53;;;;;;;39.17;21.90;;;;;;;2.31;76.22;97281.66;6203498;23;20229;-71
2021/12/11 11:17:55;;;;;;;40.80;22.17;;;;;;;2.24;76.26;97282.91;6193642;28;20316;-71
2021/12/11 11:21:09;;;;;;;41.13;22.40;;;;;;;2.20;76.40;97282.22;6189226;23;20264;-70
2021/12/11 11:24:12;;;;;;;42.27;23.17;;;;;;;2.46;76.47;97277.41;6193514;28;20256;-71
2021/12/11 11:27:17;;;;;;;42.83;22.63;;;;;;;2.63;75.30;97279.91;6193822;28;20665;-71
2021/12/11 11:30:25;;;;;;;38.87;21.60;;;;;;;2.64;75.42;97279.00;6188686;28;20281;-73
2021/12/11 11:33:28;;;;;;;40.17;22.57;;;;;;;2.66;75.40;97278.91;6176198;28;20314;-71
2021/12/11 11:36:31;;;;;;;45.40;25.33;;;;;;;2.55;74.98;97282.94;6176643;28;20275;-70
2021/12/11 11:39:33;;;;;;;43.33;23.50;;;;;;;2.51;75.51;97280.56;6168896;28;20335;-70
2021/12/11 11:42:37;;;;;;;41.23;23.30;;;;;;;2.51;75.65;97285.78;6149586;28;20249;-71
2021/12/11 11:45:40;;;;;;;39.50;22.20;;;;;;;2.64;75.89;97285.97;6177496;28;20606;-70
2021/12/11 11:48:46;;;;;;;45.50;24.37;;;;;;;2.77;75.03;97287.81;6158836;28;20233;-70
2021/12/11 11:51:54;;;;;;;46.50;23.63;;;;;;;2.80;74.82;97282.41;6175987;28;20709;-71
2021/12/11 11:55:00;;;;;;;41.30;23.10;;;;;;;3.17;73.75;97278.59;6181479;28;20237;-70
2021/12/11 11:58:03;;;;;;;39.97;22.90;;;;;;;3.53;72.73;97273.00;6181180;28;20238;-69
2021/12/11 12:01:18;;;;;;;40.07;22.73;;;;;;;3.79;71.76;97275.84;6179185;28;20240;-70
2021/12/11 12:04:22;;;;;;;41.50;23.53;;;;;;;3.85;71.25;97278.94;6180326;28;20231;-70
2021/12/11 12:07:28;;;;;;;44.63;23.33;;;;;;;3.92;70.68;97268.94;6175912;28;20237;-70
2021/12/11 12:10:31;;;;;;;39.53;23.27;;;;;;;3.93;71.50;97278.47;6186112;28;20241;-70
2021/12/11 12:13:33;;;;;;;39.80;23.40;;;;;;;3.52;71.19;97276.53;6181936;28;20233;-69
2021/12/11 12:16:56;;;;;;;44.10;24.00;;;;;;;3.27;71.78;97278.91;6181479;28;20235;-70
2021/12/11 12:19:59;;;;;;;41.20;24.40;;;;;;;3.07;72.80;97268.78;6150436;28;20230;-70
2021/12/11 12:23:02;;;;;;;37.97;22.23;;;;;;;2.97;73.30;97279.72;6180775;28;20229;-70
2021/12/11 12:26:11;;;;;;;40.97;23.43;;;;;;;3.07;73.32;97277.44;6182934;28;20245;-70
2021/12/11 12:29:14;;;;;;;41.70;23.97;;;;;;;3.48;72.20;97269.84;6164262;28;20228;-70
2021/12/11 12:32:22;;;;;;;46.57;24.80;;;;;;;3.47;71.71;97275.97;6181766;28;20234;-70
2021/12/11 12:35:26;;;;;;;45.57;26.13;;;;;;;3.26;72.54;97279.81;6181239;28;20328;-71
2021/12/11 12:38:30;;;;;;;43.17;23.63;;;;;;;3.14;73.27;97280.53;6166171;28;20280;-70
2021/12/11 12:41:37;;;;;;;43.27;23.07;;;;;;;2.96;73.79;97285.03;6168903;28;20736;-70
2021/12/11 12:44:39;;;;;;;41.73;22.97;;;;;;;2.81;74.31;97299.72;6180374;28;20257;-69
2021/12/11 12:47:47;;;;;;;26.63;14.80;;;;;;;2.77;75.18;97300.84;6180762;28;20718;-69
2021/12/11 12:50:58;;;;;;;6.10;4.40;;;;;;;2.86;75.70;97300.34;6179215;28;20702;-70
2021/12/11 12:54:02;;;;;;;4.43;3.50;;;;;;;2.97;75.65;97299.72;6181191;28;20311;-72
2021/12/11 12:57:21;;;;;;;3.60;3.10;;;;;;;3.08;75.03;97302.59;6179780;28;20224;-70
2021/12/11 13:00:28;;;;;;;4.43;3.40;;;;;;;3.08;75.11;97313.00;6180777;28;20235;-70
2021/12/11 13:03:34;;;;;;;5.03;3.27;;;;;;;2.92;75.63;97318.22;6180728;28;20232;-70
2021/12/11 13:06:43;;;;;;;4.13;3.10;;;;;;;2.86;75.90;97317.72;6179996;28;20236;-70
2021/12/11 13:09:56;;;;;;;2.90;2.60;;;;;;;2.94;75.70;97324.19;6174892;28;20240;-69
2021/12/11 13:12:59;;;;;;;3.33;2.90;;;;;;;3.00;75.44;97332.59;6180680;28;20237;-71
2021/12/11 13:16:10;;;;;;;3.13;2.43;;;;;;;3.06;75.47;97334.88;6178640;28;20721;-70
2021/12/11 13:19:26;;;;;;;3.23;2.60;;;;;;;3.22;74.91;97338.28;6177655;28;20937;-71
2021/12/11 13:22:38;;;;;;;2.93;2.47;;;;;;;3.20;75.10;97330.53;6178716;28;20246;-71
2021/12/11 13:25:50;;;;;;;3.80;2.57;;;;;;;3.22;74.64;97343.50;6179413;28;20235;-70
2021/12/11 13:28:57;;;;;;;2.50;2.30;;;;;;;3.08;75.55;97352.13;6180304;28;20231;-71
2021/12/11 13:32:09;;;;;;;3.00;2.70;;;;;;;3.01;75.16;97352.50;6179895;28;20224;-69
2021/12/11 13:35:18;;;;;;;2.40;2.20;;;;;;;2.95;75.51;97353.72;6180128;28;20711;-70
2021/12/11 13:38:23;;;;;;;2.33;2.13;;;;;;;2.84;75.80;97353.44;6166922;28;20234;-70
2021/12/11 13:41:30;;;;;;;3.50;2.37;;;;;;;2.80;75.97;97363.19;6146725;28;20739;-70
2021/12/11 13:44:52;;;;;;;2.60;2.40;;;;;;;2.68;76.40;97371.69;6178833;28;20237;-70
2021/12/11 13:47:54;;;;;;;2.80;2.27;;;;;;;2.65;76.51;97378.81;6179314;28;20439;-70
2021/12/11 13:51:08;;;;;;;2.77;2.57;;;;;;;2.56;76.82;97385.38;6179649;28;20238;-69
2021/12/11 13:54:11;;;;;;;2.37;2.17;;;;;;;2.51;76.98;97387.34;6179457;28;20222;-70
2021/12/11 13:57:20;;;;;;;3.20;2.73;;;;;;;2.49;77.41;97397.03;6175016;28;20746;-71
2021/12/11 14:00:29;;;;;;;2.93;2.20;;;;;;;2.41;77.59;97396.56;6181176;28;20478;-70
2021/12/11 14:03:44;;;;;;;4.70;2.60;;;;;;;2.38;77.69;97405.41;6179710;28;20292;-71
2021/12/11 14:06:58;;;;;;;3.00;2.70;;;;;;;2.30;77.90;97409.31;6178996;28;20244;-70
2021/12/11 14:10:07;;;;;;;5.67;3.50;;;;;;;2.22;78.56;97409.72;6140079;28;20287;-71
2021/12/11 14:13:12;;;;;;;3.70;3.20;;;;;;;2.18;78.51;97419.47;6178651;28;20233;-71
2021/12/11 14:16:14;;;;;;;3.40;3.10;;;;;;;2.19;78.33;97433.31;6178080;28;20315;-71
2021/12/11 14:19:18;;;;;;;4.00;3.20;;;;;;;2.13;78.78;97431.84;6162775;28;20240;-71
2021/12/11 14:22:23;;;;;;;4.03;3.40;;;;;;;2.04;78.96;97444.47;6174098;28;20581;-71
2021/12/11 14:25:31;;;;;;;3.50;3.00;;;;;;;1.99;79.04;97455.13;6179195;28;20237;-71
2021/12/11 14:28:34;;;;;;;2.93;2.43;;;;;;;1.91;79.45;97454.66;6178523;28;20268;-71
2021/12/11 14:31:39;;;;;;;3.30;2.83;;;;;;;1.78;79.80;97462.25;6177425;28;20697;-70
2021/12/11 14:34:42;;;;;;;4.27;3.37;;;;;;;1.70;80.32;97459.13;6177040;28;20311;-73
2021/12/11 14:37:45;;;;;;;3.50;3.20;;;;;;;1.70;80.23;97466.94;6175262;28;20230;-70
2021/12/11 14:40:49;;;;;;;4.07;3.50;;;;;;;1.68;80.61;97470.56;6170600;28;20775;-72